< < Back
Terminal Aerodrome Forecast


Current Version              Previous Versions:   1  2  3  4  5  6  7  8  9  

Terminal Aerodrome Forecast

961
FTUS42 KCAE 261132
TAFCAE
TAF
KCAE 261132Z 2612/2712 08009KT P6SM BKN015
     FM261500 06008KT P6SM SCT030
     FM270100 VRB03KT P6SM FEW250=

Latest METAR

103
SAUS80 KWBC 261100
MTRCAE
METAR KCAE 261056Z 08009KT 9SM FEW013 OVC018 26/22 A3016 RMK AO2 SLP209
T02560217 $


USA.gov is the U.S. government's official web portal to all federal, state and local government web resources and services.